Impacts METAR Board
IDs:

KMSP - Minneapolis-St Paul, MN, US

Updated at: 1700 UTC 24 Sep 2018
Potential Impact None Slight Moderate High
Time 24/05Z 24/06Z 24/07Z 24/08Z 24/09Z 24/10Z 24/11Z 24/12Z 24/13Z 24/14Z 24/15Z 24/16Z 24/17Z
Temp62 61 60 59 59 59 59 60 57 60 63 68 71
Dewpt53 53 52 52 51 51 50 49 49 51 52 55 58
Altim29.96 29.95 29.97 29.97 29.96 29.96 29.94 29.94 29.94 29.93 29.91 29.90 29.89
VIS10 10 10 10 10 10 10 10 10 10 10 10 10
CIG250 250 190 200 190 -- -- 250 250 250 250 250 35
CoverOVCOVCOVCOVCOVCSCTSCTBKNBKNBKNBKNBKNBKN
FltCatVFRVFRVFRVFRVFRVFRVFRVFRVFRVFRVFRVFRVFR
WX--------------------------
WDir150150160150160170160160150170160170200
WSpd12 11 5 7 11 10 12 12 9 12 10 9 12
WGst-- -- -- -- -- -- -- 22 20 19 -- -- --
Raw hourly METARs
KMSP 240453Z 15012KT 10SM OVC250 17/12 A2996 RMK AO2 SLP143 T01670117
KMSP 240553Z 15011KT 10SM OVC250 16/12 A2995 RMK AO2 SLP140 T01610117 10222 20161 402440106 50000
KMSP 240653Z 16005KT 10SM OVC190 16/11 A2997 RMK AO2 SLP145 T01560111
KMSP 240753Z 15007KT 10SM OVC200 15/11 A2997 RMK AO2 SLP145 T01500111
KMSP 240853Z 16011KT 10SM OVC190 15/11 A2996 RMK AO2 SLP141 T01500106 50001
KMSP 240953Z 17010KT 10SM FEW190 SCT250 15/11 A2996 RMK AO2 SLP142 T01500106
KMSP 241053Z 16012KT 10SM FEW190 SCT250 15/10 A2994 RMK AO2 SLP135 T01500100
KMSP 241153Z 16012G22KT 10SM BKN250 16/09 A2994 RMK AO2 PK WND 16026/1114 SLP136 T01560094 10161 20144 58005
KMSP 241253Z 15009G20KT 10SM BKN250 14/09 A2994 RMK AO2 SLP137 T01390094
KMSP 241353Z 17012G19KT 10SM BKN250 16/11 A2993 RMK AO2 SLP133 T01560106
KMSP 241453Z 16010KT 10SM BKN250 17/11 A2991 RMK AO2 SLP127 T01720111 58009
KMSP 241553Z 17009KT 10SM BKN250 20/13 A2990 RMK AO2 SLP122 T02000128
KMSP 241653Z 20012KT 10SM BKN035 BKN250 22/14 A2989 RMK AO2 SLP118 T02170144



Page loaded:  17:00 UTC  |   10:00 AM Pacific  |   11:00 AM Mountain  |   12:00 PM Central  |   01:00 PM Eastern

 

ADVISORIES

FORECASTS

FORECASTS

OBSERVATIONS

USER TOOLS

ABOUT US